sensor_id;sensor_type;location;lat;lon;timestamp;pressure;altitude;pressure_sealevel;temperature;humidity
37892;BME280;45797;47.466;9.486;2022-12-20T00:04:28;96480.59;;;5.16;73.48
37892;BME280;45797;47.466;9.486;2022-12-20T00:09:30;96487.53;;;5.15;73.39
37892;BME280;45797;47.466;9.486;2022-12-20T00:14:32;96472.88;;;5.14;73.84
37892;BME280;45797;47.466;9.486;2022-12-20T00:19:33;96477.31;;;5.11;74.14
37892;BME280;45797;47.466;9.486;2022-12-20T00:24:54;96492.31;;;5.04;73.61
37892;BME280;45797;47.466;9.486;2022-12-20T00:29:56;96471.28;;;5.10;74.21
37892;BME280;45797;47.466;9.486;2022-12-20T00:34:57;96449.50;;;5.14;74.04
37892;BME280;45797;47.466;9.486;2022-12-20T00:39:58;96452.72;;;5.21;74.14
37892;BME280;45797;47.466;9.486;2022-12-20T00:44:58;96472.25;;;5.30;74.03
37892;BME280;45797;47.466;9.486;2022-12-20T00:49:58;96476.50;;;5.32;73.57
37892;BME280;45797;47.466;9.486;2022-12-20T00:55:06;96472.78;;;5.38;73.26
37892;BME280;45797;47.466;9.486;2022-12-20T01:00:07;96462.16;;;5.44;74.04
37892;BME280;45797;47.466;9.486;2022-12-20T01:05:16;96457.66;;;5.48;73.64
37892;BME280;45797;47.466;9.486;2022-12-20T01:10:17;96473.00;;;5.54;73.53
37892;BME280;45797;47.466;9.486;2022-12-20T01:15:19;96448.53;;;5.59;73.41
37892;BME280;45797;47.466;9.486;2022-12-20T01:20:28;96444.28;;;5.57;73.81
37892;BME280;45797;47.466;9.486;2022-12-20T01:25:29;96448.47;;;5.61;73.54
37892;BME280;45797;47.466;9.486;2022-12-20T01:30:31;96435.56;;;5.59;73.41
37892;BME280;45797;47.466;9.486;2022-12-20T01:35:32;96434.63;;;5.60;73.78
37892;BME280;45797;47.466;9.486;2022-12-20T01:40:38;96419.91;;;5.61;73.02
37892;BME280;45797;47.466;9.486;2022-12-20T01:45:41;96459.03;;;5.56;73.85
37892;BME280;45797;47.466;9.486;2022-12-20T01:50:41;96466.19;;;5.51;73.78
37892;BME280;45797;47.466;9.486;2022-12-20T01:55:42;96466.06;;;5.54;74.01
37892;BME280;45797;47.466;9.486;2022-12-20T02:00:48;96442.53;;;5.57;74.12
37892;BME280;45797;47.466;9.486;2022-12-20T02:05:49;96457.50;;;5.52;74.19
37892;BME280;45797;47.466;9.486;2022-12-20T02:16:01;96415.78;;;5.55;73.96
37892;BME280;45797;47.466;9.486;2022-12-20T02:32:19;96401.50;;;5.45;74.25
37892;BME280;45797;47.466;9.486;2022-12-20T02:37:29;96396.97;;;5.50;74.28
37892;BME280;45797;47.466;9.486;2022-12-20T02:42:31;96395.00;;;5.55;74.17
37892;BME280;45797;47.466;9.486;2022-12-20T02:47:48;96418.47;;;5.54;74.34
37892;BME280;45797;47.466;9.486;2022-12-20T02:52:59;96412.16;;;5.59;74.04
37892;BME280;45797;47.466;9.486;2022-12-20T02:58:20;96413.84;;;5.60;74.04
37892;BME280;45797;47.466;9.486;2022-12-20T03:03:23;96417.09;;;5.65;73.89
37892;BME280;45797;47.466;9.486;2022-12-20T03:08:29;96417.75;;;5.70;73.89
37892;BME280;45797;47.466;9.486;2022-12-20T03:13:31;96429.69;;;5.74;73.95
37892;BME280;45797;47.466;9.486;2022-12-20T03:18:40;96424.56;;;5.73;73.65
37892;BME280;45797;47.466;9.486;2022-12-20T03:23:48;96388.19;;;5.73;73.79
37892;BME280;45797;47.466;9.486;2022-12-20T03:28:53;96384.66;;;5.74;73.50
37892;BME280;45797;47.466;9.486;2022-12-20T03:34:05;96386.88;;;5.63;73.66
37892;BME280;45797;47.466;9.486;2022-12-20T03:39:07;96380.72;;;5.65;74.35
37892;BME280;45797;47.466;9.486;2022-12-20T03:44:13;96380.38;;;5.73;74.31
37892;BME280;45797;47.466;9.486;2022-12-20T03:49:14;96388.31;;;5.70;74.11
37892;BME280;45797;47.466;9.486;2022-12-20T03:54:20;96395.13;;;5.72;74.39
37892;BME280;45797;47.466;9.486;2022-12-20T03:59:42;96371.75;;;5.72;73.98
37892;BME280;45797;47.466;9.486;2022-12-20T04:04:45;96356.16;;;5.72;74.20
37892;BME280;45797;47.466;9.486;2022-12-20T04:09:46;96344.78;;;5.75;74.75
37892;BME280;45797;47.466;9.486;2022-12-20T04:14:50;96325.59;;;5.78;73.88
37892;BME280;45797;47.466;9.486;2022-12-20T04:19:54;96342.19;;;5.75;74.37
37892;BME280;45797;47.466;9.486;2022-12-20T04:24:57;96343.00;;;5.76;73.96
37892;BME280;45797;47.466;9.486;2022-12-20T04:30:05;96331.19;;;5.68;74.52
37892;BME280;45797;47.466;9.486;2022-12-20T04:35:09;96333.78;;;5.68;74.62
37892;BME280;45797;47.466;9.486;2022-12-20T04:40:24;96342.50;;;5.67;74.37
37892;BME280;45797;47.466;9.486;2022-12-20T04:45:36;96320.19;;;5.63;74.14
37892;BME280;45797;47.466;9.486;2022-12-20T04:50:39;96319.25;;;5.64;74.55
37892;BME280;45797;47.466;9.486;2022-12-20T04:55:40;96319.34;;;5.63;74.72
37892;BME280;45797;47.466;9.486;2022-12-20T05:00:44;96322.56;;;5.68;74.76
37892;BME280;45797;47.466;9.486;2022-12-20T05:06:07;96322.63;;;5.66;74.52
37892;BME280;45797;47.466;9.486;2022-12-20T05:11:08;96328.75;;;5.65;74.75
37892;BME280;45797;47.466;9.486;2022-12-20T05:16:16;96329.31;;;5.72;74.32
37892;BME280;45797;47.466;9.486;2022-12-20T05:21:17;96326.66;;;5.73;74.79
37892;BME280;45797;47.466;9.486;2022-12-20T05:26:38;96342.41;;;5.70;74.91
37892;BME280;45797;47.466;9.486;2022-12-20T05:31:42;96327.50;;;5.74;74.36
37892;BME280;45797;47.466;9.486;2022-12-20T05:36:55;96318.94;;;5.72;74.75
37892;BME280;45797;47.466;9.486;2022-12-20T05:41:59;96319.75;;;5.54;74.53
37892;BME280;45797;47.466;9.486;2022-12-20T05:47:02;96321.50;;;5.53;75.28
37892;BME280;45797;47.466;9.486;2022-12-20T05:52:05;96301.34;;;5.58;75.14
37892;BME280;45797;47.466;9.486;2022-12-20T05:57:08;96309.78;;;5.63;75.36
37892;BME280;45797;47.466;9.486;2022-12-20T06:02:14;96307.78;;;5.70;74.68
37892;BME280;45797;47.466;9.486;2022-12-20T06:07:15;96290.34;;;5.72;74.71
37892;BME280;45797;47.466;9.486;2022-12-20T06:12:21;96284.16;;;5.74;74.76
37892;BME280;45797;47.466;9.486;2022-12-20T06:17:23;96293.22;;;5.66;74.80
37892;BME280;45797;47.466;9.486;2022-12-20T06:22:26;96287.09;;;5.67;75.06
37892;BME280;45797;47.466;9.486;2022-12-20T06:27:31;96289.59;;;5.70;74.87
37892;BME280;45797;47.466;9.486;2022-12-20T06:32:48;96280.28;;;5.64;74.58
37892;BME280;45797;47.466;9.486;2022-12-20T06:37:49;96273.41;;;5.63;75.54
37892;BME280;45797;47.466;9.486;2022-12-20T06:42:53;96280.44;;;5.61;74.74
37892;BME280;45797;47.466;9.486;2022-12-20T06:47:57;96272.75;;;5.58;75.25
37892;BME280;45797;47.466;9.486;2022-12-20T06:52:58;96272.00;;;5.56;75.41
37892;BME280;45797;47.466;9.486;2022-12-20T06:58:02;96273.75;;;5.56;75.63
37892;BME280;45797;47.466;9.486;2022-12-20T07:03:04;96286.03;;;5.52;75.39
37892;BME280;45797;47.466;9.486;2022-12-20T07:08:04;96278.59;;;5.44;75.73
37892;BME280;45797;47.466;9.486;2022-12-20T07:13:06;96284.63;;;5.45;75.20
37892;BME280;45797;47.466;9.486;2022-12-20T07:18:12;96277.59;;;5.47;75.39
37892;BME280;45797;47.466;9.486;2022-12-20T07:23:14;96279.09;;;5.53;75.37
37892;BME280;45797;47.466;9.486;2022-12-20T07:28:15;96272.06;;;5.55;74.58
37892;BME280;45797;47.466;9.486;2022-12-20T07:33:16;96271.66;;;5.64;75.07
37892;BME280;45797;47.466;9.486;2022-12-20T07:38:17;96277.56;;;5.67;74.56
37892;BME280;45797;47.466;9.486;2022-12-20T07:43:34;96292.09;;;5.71;74.43
37892;BME280;45797;47.466;9.486;2022-12-20T07:48:35;96307.28;;;5.81;74.48
37892;BME280;45797;47.466;9.486;2022-12-20T07:53:53;96286.19;;;5.87;74.60
37892;BME280;45797;47.466;9.486;2022-12-20T07:58:57;96265.50;;;6.04;74.35
37892;BME280;45797;47.466;9.486;2022-12-20T08:04:04;96263.25;;;6.15;74.23
37892;BME280;45797;47.466;9.486;2022-12-20T08:09:09;96272.59;;;6.19;73.76
37892;BME280;45797;47.466;9.486;2022-12-20T08:14:22;96281.81;;;6.26;73.74
37892;BME280;45797;47.466;9.486;2022-12-20T08:19:23;96290.72;;;6.40;73.60
37892;BME280;45797;47.466;9.486;2022-12-20T08:24:23;96307.00;;;6.43;74.05
37892;BME280;45797;47.466;9.486;2022-12-20T08:29:25;96297.84;;;6.53;73.77
37892;BME280;45797;47.466;9.486;2022-12-20T08:34:25;96296.63;;;6.61;73.48
37892;BME280;45797;47.466;9.486;2022-12-20T08:39:29;96275.38;;;6.70;73.27
37892;BME280;45797;47.466;9.486;2022-12-20T08:44:36;96263.66;;;6.78;72.57
37892;BME280;45797;47.466;9.486;2022-12-20T08:49:46;96281.78;;;6.63;73.28
37892;BME280;45797;47.466;9.486;2022-12-20T08:54:49;96287.50;;;6.52;74.00
37892;BME280;45797;47.466;9.486;2022-12-20T08:59:53;96280.19;;;6.60;74.17
37892;BME280;45797;47.466;9.486;2022-12-20T09:04:53;96271.47;;;6.61;73.92
37892;BME280;45797;47.466;9.486;2022-12-20T09:09:55;96276.22;;;6.70;73.77
37892;BME280;45797;47.466;9.486;2022-12-20T09:14:57;96262.63;;;6.82;73.71
37892;BME280;45797;47.466;9.486;2022-12-20T09:20:15;96253.34;;;6.94;73.33
37892;BME280;45797;47.466;9.486;2022-12-20T09:25:15;96263.75;;;6.94;73.29
37892;BME280;45797;47.466;9.486;2022-12-20T09:30:17;96250.19;;;6.87;73.82
37892;BME280;45797;47.466;9.486;2022-12-20T09:35:18;96236.25;;;6.88;73.59
37892;BME280;45797;47.466;9.486;2022-12-20T09:40:21;96246.47;;;6.93;73.69
37892;BME280;45797;47.466;9.486;2022-12-20T09:45:28;96249.34;;;6.87;74.03
37892;BME280;45797;47.466;9.486;2022-12-20T09:56:09;96269.03;;;6.75;74.02
37892;BME280;45797;47.466;9.486;2022-12-20T10:01:18;96266.44;;;6.93;73.82
37892;BME280;45797;47.466;9.486;2022-12-20T10:17:12;96226.75;;;7.05;73.27
37892;BME280;45797;47.466;9.486;2022-12-20T10:23:21;96229.53;;;7.02;73.23
37892;BME280;45797;47.466;9.486;2022-12-20T10:28:15;96215.25;;;7.09;73.53
37892;BME280;45797;47.466;9.486;2022-12-20T10:33:26;96192.88;;;7.22;72.86
37892;BME280;45797;47.466;9.486;2022-12-20T10:38:44;96175.84;;;7.32;72.56
37892;BME280;45797;47.466;9.486;2022-12-20T10:43:59;96170.94;;;7.26;72.61
37892;BME280;45797;47.466;9.486;2022-12-20T10:54:43;96185.00;;;6.73;73.92
37892;BME280;45797;47.466;9.486;2022-12-20T10:59:53;96174.41;;;6.76;74.24
37892;BME280;45797;47.466;9.486;2022-12-20T11:05:23;96154.03;;;6.84;73.80
37892;BME280;45797;47.466;9.486;2022-12-20T11:10:39;96149.13;;;6.96;73.51
37892;BME280;45797;47.466;9.486;2022-12-20T11:15:47;96141.75;;;7.04;73.45
37892;BME280;45797;47.466;9.486;2022-12-20T11:37:25;96089.84;;;7.80;72.74
37892;BME280;45797;47.466;9.486;2022-12-20T11:53:29;96058.41;;;8.71;70.68
37892;BME280;45797;47.466;9.486;2022-12-20T11:59:03;96034.72;;;9.03;70.23
37892;BME280;45797;47.466;9.486;2022-12-20T12:04:13;96032.91;;;9.32;70.00
37892;BME280;45797;47.466;9.486;2022-12-20T12:09:30;96048.06;;;9.12;70.28
37892;BME280;45797;47.466;9.486;2022-12-20T12:19:45;96017.47;;;8.86;71.20
37892;BME280;45797;47.466;9.486;2022-12-20T12:25:09;96002.72;;;8.85;71.03
37892;BME280;45797;47.466;9.486;2022-12-20T12:30:14;96025.56;;;8.96;70.69
37892;BME280;45797;47.466;9.486;2022-12-20T12:35:44;96028.56;;;8.61;71.01
37892;BME280;45797;47.466;9.486;2022-12-20T12:46:02;96024.56;;;8.55;72.16
37892;BME280;45797;47.466;9.486;2022-12-20T12:51:04;96000.63;;;8.63;71.39
37892;BME280;45797;47.466;9.486;2022-12-20T12:56:30;95991.53;;;8.69;71.16
37892;BME280;45797;47.466;9.486;2022-12-20T13:17:45;96031.09;;;8.48;71.20
37892;BME280;45797;47.466;9.486;2022-12-20T13:33:50;96016.63;;;8.71;71.31
37892;BME280;45797;47.466;9.486;2022-12-20T13:38:54;96032.69;;;8.94;71.42
37892;BME280;45797;47.466;9.486;2022-12-20T13:44:25;96031.06;;;9.05;71.23
37892;BME280;45797;47.466;9.486;2022-12-20T13:49:26;96029.34;;;9.19;70.29
37892;BME280;45797;47.466;9.486;2022-12-20T13:54:43;96016.44;;;9.03;71.15
37892;BME280;45797;47.466;9.486;2022-12-20T13:59:46;96026.97;;;8.87;71.23
37892;BME280;45797;47.466;9.486;2022-12-20T14:04:56;96013.75;;;8.76;71.65
37892;BME280;45797;47.466;9.486;2022-12-20T14:10:01;96015.97;;;8.68;71.81
37892;BME280;45797;47.466;9.486;2022-12-20T14:15:20;95998.16;;;8.60;71.76
37892;BME280;45797;47.466;9.486;2022-12-20T14:20:32;95989.69;;;8.56;71.87
37892;BME280;45797;47.466;9.486;2022-12-20T14:30:58;95993.97;;;8.43;72.38
37892;BME280;45797;47.466;9.486;2022-12-20T14:36:18;95998.78;;;8.21;72.40
37892;BME280;45797;47.466;9.486;2022-12-20T14:46:54;95999.75;;;8.04;72.78
37892;BME280;45797;47.466;9.486;2022-12-20T14:52:25;95971.16;;;8.02;72.51
37892;BME280;45797;47.466;9.486;2022-12-20T15:02:44;95961.13;;;8.11;72.30
37892;BME280;45797;47.466;9.486;2022-12-20T15:07:46;95962.97;;;8.09;72.64
37892;BME280;45797;47.466;9.486;2022-12-20T15:12:47;95971.69;;;7.93;73.29
37892;BME280;45797;47.466;9.486;2022-12-20T15:17:55;95969.16;;;7.78;73.34
37892;BME280;45797;47.466;9.486;2022-12-20T15:23:02;95959.75;;;7.75;73.18
37892;BME280;45797;47.466;9.486;2022-12-20T15:28:11;95958.91;;;7.74;73.38
37892;BME280;45797;47.466;9.486;2022-12-20T15:33:22;95952.19;;;7.70;73.63
37892;BME280;45797;47.466;9.486;2022-12-20T15:38:25;95951.38;;;7.70;73.56
37892;BME280;45797;47.466;9.486;2022-12-20T15:43:42;95942.13;;;7.64;73.51
37892;BME280;45797;47.466;9.486;2022-12-20T15:48:53;95947.25;;;7.66;73.31
37892;BME280;45797;47.466;9.486;2022-12-20T15:54:16;95955.53;;;7.58;73.59
37892;BME280;45797;47.466;9.486;2022-12-20T15:59:35;95952.97;;;7.57;73.50
37892;BME280;45797;47.466;9.486;2022-12-20T16:04:46;95944.22;;;7.58;73.30
37892;BME280;45797;47.466;9.486;2022-12-20T16:09:48;95933.75;;;7.59;73.30
37892;BME280;45797;47.466;9.486;2022-12-20T16:14:51;95956.09;;;7.63;73.70
37892;BME280;45797;47.466;9.486;2022-12-20T16:19:55;95962.03;;;7.65;73.62
37892;BME280;45797;47.466;9.486;2022-12-20T16:24:55;95972.38;;;7.67;73.33
37892;BME280;45797;47.466;9.486;2022-12-20T16:29:57;95960.75;;;7.72;73.15
37892;BME280;45797;47.466;9.486;2022-12-20T16:34:57;95944.47;;;7.69;73.38
37892;BME280;45797;47.466;9.486;2022-12-20T16:40:05;95945.72;;;7.78;73.09
37892;BME280;45797;47.466;9.486;2022-12-20T16:45:19;95939.47;;;7.80;72.70
37892;BME280;45797;47.466;9.486;2022-12-20T16:50:22;95959.19;;;7.84;72.97
37892;BME280;45797;47.466;9.486;2022-12-20T16:55:29;95948.69;;;7.86;72.40
37892;BME280;45797;47.466;9.486;2022-12-20T17:00:32;95945.63;;;7.93;72.50
37892;BME280;45797;47.466;9.486;2022-12-20T17:05:34;95935.13;;;8.09;72.28
37892;BME280;45797;47.466;9.486;2022-12-20T17:10:37;95919.56;;;8.22;72.18
37892;BME280;45797;47.466;9.486;2022-12-20T17:15:44;95930.88;;;8.37;71.32
37892;BME280;45797;47.466;9.486;2022-12-20T17:20:46;95901.41;;;8.49;71.62
37892;BME280;45797;47.466;9.486;2022-12-20T17:25:46;95911.28;;;8.58;71.45
37892;BME280;45797;47.466;9.486;2022-12-20T17:30:51;95905.22;;;8.43;71.53
37892;BME280;45797;47.466;9.486;2022-12-20T17:35:52;95902.19;;;8.37;71.70
37892;BME280;45797;47.466;9.486;2022-12-20T17:40:55;95894.44;;;8.35;72.14
37892;BME280;45797;47.466;9.486;2022-12-20T17:45:56;95887.69;;;8.31;71.53
37892;BME280;45797;47.466;9.486;2022-12-20T17:50:57;95905.22;;;8.29;72.05
37892;BME280;45797;47.466;9.486;2022-12-20T17:55:59;95910.63;;;8.26;72.24
37892;BME280;45797;47.466;9.486;2022-12-20T18:06:16;95878.00;;;8.33;71.88
37892;BME280;45797;47.466;9.486;2022-12-20T18:11:17;95883.63;;;8.41;71.81
37892;BME280;45797;47.466;9.486;2022-12-20T18:16:23;95871.13;;;8.46;71.27
37892;BME280;45797;47.466;9.486;2022-12-20T18:21:26;95869.25;;;8.48;71.31
37892;BME280;45797;47.466;9.486;2022-12-20T18:26:29;95868.88;;;8.40;71.28
37892;BME280;45797;47.466;9.486;2022-12-20T18:31:40;95865.44;;;8.40;71.72
37892;BME280;45797;47.466;9.486;2022-12-20T18:36:48;95859.84;;;8.46;71.53
37892;BME280;45797;47.466;9.486;2022-12-20T18:41:49;95860.59;;;8.48;71.75
37892;BME280;45797;47.466;9.486;2022-12-20T18:46:50;95860.69;;;8.46;71.79
37892;BME280;45797;47.466;9.486;2022-12-20T18:51:52;95863.66;;;8.40;71.44
37892;BME280;45797;47.466;9.486;2022-12-20T18:56:54;95849.59;;;8.43;71.78
37892;BME280;45797;47.466;9.486;2022-12-20T19:01:57;95851.09;;;8.47;71.61
37892;BME280;45797;47.466;9.486;2022-12-20T19:06:57;95853.91;;;8.44;71.44
37892;BME280;45797;47.466;9.486;2022-12-20T19:11:58;95853.59;;;8.34;71.82
37892;BME280;45797;47.466;9.486;2022-12-20T19:17:00;95846.03;;;8.29;71.96
37892;BME280;45797;47.466;9.486;2022-12-20T19:22:03;95853.03;;;8.15;71.86
37892;BME280;45797;47.466;9.486;2022-12-20T19:27:03;95848.22;;;8.09;72.39
37892;BME280;45797;47.466;9.486;2022-12-20T19:32:07;95847.53;;;8.05;72.11
37892;BME280;45797;47.466;9.486;2022-12-20T19:37:13;95846.66;;;8.06;72.06
37892;BME280;45797;47.466;9.486;2022-12-20T19:42:19;95845.53;;;7.96;72.54
37892;BME280;45797;47.466;9.486;2022-12-20T19:47:22;95844.75;;;7.94;72.84
37892;BME280;45797;47.466;9.486;2022-12-20T19:52:24;95844.38;;;7.86;72.76
37892;BME280;45797;47.466;9.486;2022-12-20T19:57:24;95837.69;;;7.82;73.22
37892;BME280;45797;47.466;9.486;2022-12-20T20:02:25;95837.22;;;7.89;72.99
37892;BME280;45797;47.466;9.486;2022-12-20T20:07:27;95856.88;;;7.95;73.02
37892;BME280;45797;47.466;9.486;2022-12-20T20:12:28;95833.31;;;7.96;72.50
37892;BME280;45797;47.466;9.486;2022-12-20T20:17:29;95857.81;;;7.94;72.68
37892;BME280;45797;47.466;9.486;2022-12-20T20:22:32;95856.97;;;7.93;72.58
37892;BME280;45797;47.466;9.486;2022-12-20T20:27:34;95848.22;;;7.94;72.55
37892;BME280;45797;47.466;9.486;2022-12-20T20:32:35;95877.00;;;7.93;72.91
37892;BME280;45797;47.466;9.486;2022-12-20T20:37:37;95875.31;;;7.92;73.02
37892;BME280;45797;47.466;9.486;2022-12-20T20:42:45;95865.53;;;7.95;73.01
37892;BME280;45797;47.466;9.486;2022-12-20T20:47:50;95845.03;;;8.03;72.53
37892;BME280;45797;47.466;9.486;2022-12-20T20:52:58;95856.03;;;8.09;72.77
37892;BME280;45797;47.466;9.486;2022-12-20T20:57:59;95843.53;;;8.14;72.41
37892;BME280;45797;47.466;9.486;2022-12-20T21:03:01;95858.34;;;8.13;72.68
37892;BME280;45797;47.466;9.486;2022-12-20T21:08:01;95862.72;;;8.13;72.76
37892;BME280;45797;47.466;9.486;2022-12-20T21:13:03;95888.47;;;8.19;72.71
37892;BME280;45797;47.466;9.486;2022-12-20T21:18:16;95882.59;;;8.15;72.41
37892;BME280;45797;47.466;9.486;2022-12-20T21:23:16;95895.72;;;8.14;72.83
37892;BME280;45797;47.466;9.486;2022-12-20T21:28:27;95882.66;;;8.14;72.80
37892;BME280;45797;47.466;9.486;2022-12-20T21:33:28;95866.84;;;8.17;72.88
37892;BME280;45797;47.466;9.486;2022-12-20T21:38:28;95863.56;;;8.13;73.02
37892;BME280;45797;47.466;9.486;2022-12-20T21:43:38;95853.34;;;8.10;72.84
37892;BME280;45797;47.466;9.486;2022-12-20T21:48:42;95861.91;;;8.12;72.76
37892;BME280;45797;47.466;9.486;2022-12-20T21:53:46;95861.63;;;8.02;73.21
37892;BME280;45797;47.466;9.486;2022-12-20T21:58:47;95880.81;;;8.01;73.59
37892;BME280;45797;47.466;9.486;2022-12-20T22:03:57;95881.38;;;8.07;72.99
37892;BME280;45797;47.466;9.486;2022-12-20T22:08:59;95873.06;;;8.14;73.16
37892;BME280;45797;47.466;9.486;2022-12-20T22:14:01;95873.00;;;8.16;72.91
37892;BME280;45797;47.466;9.486;2022-12-20T22:19:15;95879.41;;;8.10;73.12
37892;BME280;45797;47.466;9.486;2022-12-20T22:24:26;95886.31;;;8.11;72.62
37892;BME280;45797;47.466;9.486;2022-12-20T22:29:29;95881.66;;;8.16;73.23
37892;BME280;45797;47.466;9.486;2022-12-20T22:34:37;95880.91;;;8.14;73.02
37892;BME280;45797;47.466;9.486;2022-12-20T22:39:37;95886.31;;;8.11;73.25
37892;BME280;45797;47.466;9.486;2022-12-20T22:44:38;95897.38;;;8.15;72.84
37892;BME280;45797;47.466;9.486;2022-12-20T22:49:40;95902.78;;;8.12;73.45
37892;BME280;45797;47.466;9.486;2022-12-20T22:54:40;95887.34;;;8.09;73.56
37892;BME280;45797;47.466;9.486;2022-12-20T22:59:49;95877.75;;;8.09;73.07
37892;BME280;45797;47.466;9.486;2022-12-20T23:04:49;95879.50;;;8.09;72.63
37892;BME280;45797;47.466;9.486;2022-12-20T23:09:49;95874.50;;;8.06;73.30
37892;BME280;45797;47.466;9.486;2022-12-20T23:14:52;95870.00;;;8.08;73.26
37892;BME280;45797;47.466;9.486;2022-12-20T23:20:26;95866.66;;;8.06;73.02
37892;BME280;45797;47.466;9.486;2022-12-20T23:25:45;95870.19;;;8.05;73.38
37892;BME280;45797;47.466;9.486;2022-12-20T23:30:47;95876.91;;;8.09;73.50
37892;BME280;45797;47.466;9.486;2022-12-20T23:35:59;95866.00;;;8.02;73.49
37892;BME280;45797;47.466;9.486;2022-12-20T23:41:12;95875.59;;;8.01;73.37
37892;BME280;45797;47.466;9.486;2022-12-20T23:46:14;95878.94;;;8.03;73.33
37892;BME280;45797;47.466;9.486;2022-12-20T23:51:16;95883.16;;;8.06;73.48
37892;BME280;45797;47.466;9.486;2022-12-20T23:56:20;95873.38;;;8.10;73.67
